createdAt,value
2018-03-06T00:01:48.738Z,4.30
2018-03-06T00:04:17.128Z,4.20
2018-03-06T00:06:45.393Z,4.20
2018-03-06T00:09:14.466Z,4.10
2018-03-06T00:11:42.823Z,4.10
2018-03-06T00:14:11.063Z,3.90
2018-03-06T00:16:40.095Z,3.90
2018-03-06T00:19:08.416Z,3.90
2018-03-06T00:21:37.456Z,3.70
2018-03-06T00:24:06.175Z,3.70
2018-03-06T00:26:34.467Z,3.90
2018-03-06T00:29:02.756Z,3.80
2018-03-06T00:31:31.055Z,3.70
2018-03-06T00:34:00.103Z,3.60
2018-03-06T00:36:28.402Z,3.60
2018-03-06T00:38:56.681Z,3.60
2018-03-06T00:41:24.999Z,3.70
2018-03-06T00:43:54.875Z,3.50
2018-03-06T00:46:23.152Z,3.50
2018-03-06T00:48:51.544Z,3.40
2018-03-06T00:51:19.919Z,3.40
2018-03-06T00:53:48.986Z,3.20
2018-03-06T00:56:17.260Z,3.20
2018-03-06T00:58:45.683Z,3.30
2018-03-06T01:01:13.972Z,3.20
2018-03-06T01:03:42.265Z,3.20
2018-03-06T01:06:10.571Z,3.00
2018-03-06T01:08:38.863Z,3.00
2018-03-06T01:11:07.165Z,2.80
2018-03-06T01:13:35.468Z,2.80
2018-03-06T01:16:04.502Z,2.80
2018-03-06T01:18:32.803Z,2.80
2018-03-06T01:21:01.537Z,3.00
2018-03-06T01:23:29.836Z,3.10
2018-03-06T01:25:58.154Z,3.20
2018-03-06T01:28:26.419Z,3.30
2018-03-06T01:30:54.733Z,3.10
2018-03-06T01:33:23.767Z,2.90
2018-03-06T01:35:52.044Z,2.90
2018-03-06T01:38:20.331Z,2.80
2018-03-06T01:40:48.605Z,2.80
2018-03-06T01:43:17.011Z,2.90
2018-03-06T01:45:45.291Z,2.70
2018-03-06T01:48:13.587Z,2.60
2018-03-06T01:50:41.873Z,2.80
2018-03-06T01:53:10.942Z,2.60
2018-03-06T01:55:39.250Z,2.60
2018-03-06T01:58:08.287Z,2.50
2018-03-06T02:00:36.592Z,2.40
2018-03-06T02:03:04.972Z,2.50
2018-03-06T02:05:33.287Z,2.70
2018-03-06T02:08:01.587Z,2.60
2018-03-06T02:10:29.864Z,2.70
2018-03-06T02:12:58.201Z,2.70
2018-03-06T02:15:27.247Z,2.90
2018-03-06T02:17:55.541Z,2.90
2018-03-06T02:20:23.816Z,2.80
2018-03-06T02:22:52.085Z,2.70
2018-03-06T02:25:20.377Z,2.70
2018-03-06T02:27:48.670Z,2.60
2018-03-06T02:30:16.979Z,2.50
2018-03-06T02:32:46.017Z,2.80
2018-03-06T02:35:14.281Z,2.80
2018-03-06T02:37:42.594Z,2.90
2018-03-06T02:40:10.870Z,3.00
2018-03-06T02:42:39.167Z,3.00
2018-03-06T02:45:08.229Z,2.90
2018-03-06T02:47:36.527Z,2.80
2018-03-06T02:50:04.796Z,2.90
2018-03-06T02:52:33.076Z,2.80
2018-03-06T02:55:01.451Z,2.90
2018-03-06T02:57:29.726Z,3.00
2018-03-06T02:59:58.112Z,2.90
2018-03-06T03:02:26.431Z,2.80
2018-03-06T03:04:54.731Z,2.70
2018-03-06T03:07:23.012Z,2.60
2018-03-06T03:09:51.284Z,2.70
2018-03-06T03:12:19.611Z,2.60
2018-03-06T03:14:48.691Z,2.60
2018-03-06T03:17:16.992Z,2.50
2018-03-06T03:19:46.031Z,2.30
2018-03-06T03:22:14.303Z,2.30
2018-03-06T03:24:42.598Z,2.30
2018-03-06T03:27:10.894Z,2.20
2018-03-06T03:29:39.200Z,2.10
2018-03-06T03:32:08.272Z,2.10
2018-03-06T03:34:36.531Z,2.00
2018-03-06T03:37:04.921Z,1.90
2018-03-06T03:39:33.204Z,1.90
2018-03-06T03:42:01.515Z,2.00
2018-03-06T03:44:29.802Z,2.00
2018-03-06T03:46:58.079Z,2.00
2018-03-06T03:49:26.371Z,2.30
2018-03-06T03:51:55.750Z,2.20
2018-03-06T03:54:24.044Z,2.10
2018-03-06T03:56:52.331Z,2.20
2018-03-06T03:59:20.654Z,2.10
2018-03-06T04:01:49.044Z,2.20
2018-03-06T04:04:18.132Z,2.30
2018-03-06T04:06:46.376Z,2.30
2018-03-06T04:09:14.675Z,2.20
2018-03-06T04:11:43.052Z,2.20
2018-03-06T04:14:11.540Z,2.20
2018-03-06T04:16:39.807Z,2.10
2018-03-06T04:19:08.099Z,2.40
2018-03-06T04:21:36.376Z,2.30
2018-03-06T04:24:04.674Z,2.30
2018-03-06T04:26:33.711Z,2.30
2018-03-06T04:29:02.020Z,2.30
2018-03-06T04:31:30.297Z,2.30
2018-03-06T04:33:58.574Z,2.40
2018-03-06T04:36:26.892Z,2.50
2018-03-06T04:38:55.928Z,2.30
2018-03-06T04:41:24.231Z,2.30
2018-03-06T04:43:53.298Z,2.50
2018-03-06T04:46:21.587Z,2.40
2018-03-06T04:48:49.872Z,2.50
2018-03-06T04:51:18.263Z,2.50
2018-03-06T04:53:46.555Z,2.40
2018-03-06T04:56:15.603Z,2.50
2018-03-06T04:58:43.969Z,2.50
2018-03-06T05:01:12.293Z,2.60
2018-03-06T05:03:40.588Z,2.70
2018-03-06T05:06:09.762Z,3.00
2018-03-06T05:08:38.039Z,3.00
2018-03-06T05:11:06.524Z,3.00
2018-03-06T05:13:34.813Z,2.80
2018-03-06T05:16:03.120Z,3.00
2018-03-06T05:18:31.399Z,3.00
2018-03-06T05:20:59.684Z,2.90
2018-03-06T05:23:27.988Z,2.90
2018-03-06T05:25:56.297Z,2.80
2018-03-06T05:28:25.383Z,2.60
2018-03-06T05:30:54.434Z,2.50
2018-03-06T05:33:22.857Z,2.50
2018-03-06T05:35:51.155Z,2.50
2018-03-06T05:38:19.857Z,2.30
2018-03-06T05:40:48.911Z,2.20
2018-03-06T05:43:17.204Z,2.20
2018-03-06T05:45:45.520Z,2.10
2018-03-06T05:48:13.860Z,2.00
2018-03-06T05:50:42.144Z,2.20
2018-03-06T05:53:11.202Z,2.40
2018-03-06T05:55:39.533Z,2.40
2018-03-06T05:58:08.698Z,2.20
2018-03-06T06:00:36.974Z,2.20
2018-03-06T06:03:06.080Z,1.90
2018-03-06T06:05:34.476Z,1.90
2018-03-06T06:08:03.653Z,1.60
2018-03-06T06:10:33.567Z,1.50
2018-03-06T06:13:01.872Z,1.50
2018-03-06T06:15:30.911Z,1.30
2018-03-06T06:17:59.173Z,1.30
2018-03-06T06:20:27.473Z,1.20
2018-03-06T06:22:55.748Z,1.20
2018-03-06T06:25:24.043Z,1.10
2018-03-06T06:27:52.339Z,1.10
2018-03-06T06:30:20.625Z,1.10
2018-03-06T06:32:48.901Z,1.00
2018-03-06T06:35:17.258Z,0.90
2018-03-06T06:37:45.641Z,0.90
2018-03-06T06:40:14.018Z,0.90
2018-03-06T06:42:42.301Z,0.90
2018-03-06T06:45:11.336Z,1.00
2018-03-06T06:47:39.624Z,0.90
2018-03-06T06:50:07.886Z,0.90
2018-03-06T06:52:36.167Z,0.90
2018-03-06T06:55:04.437Z,0.90
2018-03-06T06:57:33.524Z,0.90
2018-03-06T07:00:01.755Z,0.90
2018-03-06T07:02:30.036Z,1.00
2018-03-06T07:04:58.347Z,1.10
2018-03-06T07:07:26.623Z,1.10
2018-03-06T07:09:54.920Z,1.10
2018-03-06T07:12:23.947Z,1.20
2018-03-06T07:14:52.211Z,1.20
2018-03-06T07:17:20.500Z,1.20
2018-03-06T07:19:48.788Z,1.20
2018-03-06T07:22:17.072Z,1.30
2018-03-06T07:24:45.371Z,1.40
2018-03-06T07:27:13.655Z,1.40
2018-03-06T07:29:41.939Z,1.50
2018-03-06T07:32:10.295Z,1.60
2018-03-06T07:34:38.543Z,1.80
2018-03-06T07:37:06.831Z,2.00
2018-03-06T07:39:35.107Z,2.20
2018-03-06T07:42:03.384Z,2.30
2018-03-06T07:44:31.675Z,2.30
2018-03-06T07:46:59.936Z,2.40
2018-03-06T07:49:28.247Z,2.50
2018-03-06T07:51:56.614Z,2.60
2018-03-06T07:54:24.889Z,2.70
2018-03-06T07:56:53.159Z,2.80
2018-03-06T07:59:21.759Z,2.90
2018-03-06T08:01:50.827Z,3.00
2018-03-06T08:04:19.092Z,3.00
2018-03-06T08:06:47.387Z,3.20
2018-03-06T08:09:15.652Z,3.20
2018-03-06T08:11:43.960Z,3.30
2018-03-06T08:14:12.222Z,3.30
2018-03-06T08:16:40.484Z,3.40
2018-03-06T08:19:08.884Z,3.50
2018-03-06T08:21:37.189Z,3.60
2018-03-06T08:24:05.456Z,3.50
2018-03-06T08:26:35.248Z,3.50
2018-03-06T08:29:03.601Z,3.50
2018-03-06T08:31:31.879Z,3.70
2018-03-06T08:34:00.136Z,3.90
2018-03-06T08:36:28.485Z,4.00
2018-03-06T08:38:56.766Z,4.30
2018-03-06T08:41:25.806Z,4.40
2018-03-06T08:43:54.094Z,4.40
2018-03-06T08:46:22.363Z,4.60
2018-03-06T08:48:50.874Z,4.50
2018-03-06T08:51:19.158Z,4.60
2018-03-06T08:53:47.423Z,4.60
2018-03-06T08:56:15.735Z,4.90
2018-03-06T08:58:44.198Z,4.80
2018-03-06T09:01:12.476Z,4.90
2018-03-06T09:03:40.824Z,5.00
2018-03-06T09:06:09.231Z,5.10
2018-03-06T09:08:37.712Z,5.10
2018-03-06T09:11:05.997Z,5.20
2018-03-06T09:13:35.083Z,5.40
2018-03-06T09:16:03.374Z,5.40
2018-03-06T09:18:32.455Z,5.80
2018-03-06T09:21:00.835Z,5.70
2018-03-06T09:23:29.108Z,5.90
2018-03-06T09:25:57.490Z,6.00
2018-03-06T09:28:25.770Z,6.20
2018-03-06T09:30:54.051Z,6.20
2018-03-06T09:33:22.338Z,6.30
2018-03-06T09:35:52.148Z,6.20
2018-03-06T09:38:20.514Z,6.20
2018-03-06T09:40:48.759Z,6.30
2018-03-06T09:43:17.037Z,6.30
2018-03-06T09:45:51.133Z,6.50
2018-03-06T09:48:20.178Z,6.80
2018-03-06T09:50:48.557Z,6.70
2018-03-06T09:53:16.838Z,6.80
2018-03-06T09:55:45.867Z,6.90
2018-03-06T09:58:14.892Z,6.80
2018-03-06T10:00:43.173Z,6.70
2018-03-06T10:03:11.431Z,7.10
2018-03-06T10:05:39.720Z,7.00
2018-03-06T10:08:07.991Z,7.00
2018-03-06T10:10:36.307Z,6.90
2018-03-06T10:13:04.599Z,7.10
2018-03-06T10:15:33.667Z,7.00
2018-03-06T10:18:01.946Z,6.90
2018-03-06T10:20:30.236Z,7.00
2018-03-06T10:22:58.495Z,7.00
2018-03-06T10:25:26.823Z,7.10
2018-03-06T10:27:55.913Z,7.10
2018-03-06T10:30:24.205Z,7.10
2018-03-06T10:32:53.247Z,7.50
2018-03-06T10:35:21.538Z,7.50
2018-03-06T10:37:49.916Z,7.30
2018-03-06T10:40:18.163Z,7.30
2018-03-06T10:42:47.147Z,7.10
2018-03-06T10:45:15.423Z,7.20
2018-03-06T10:47:43.766Z,7.40
2018-03-06T10:50:12.837Z,7.40
2018-03-06T10:52:41.108Z,7.40
2018-03-06T10:55:09.419Z,7.50
2018-03-06T10:57:37.758Z,7.60
2018-03-06T11:00:06.016Z,7.70
2018-03-06T11:02:40.055Z,7.90
2018-03-06T11:05:08.315Z,8.00
2018-03-06T11:07:36.596Z,8.10
2018-03-06T11:10:04.868Z,7.90
2018-03-06T11:12:33.161Z,7.70
2018-03-06T11:15:01.417Z,7.50
2018-03-06T11:17:29.752Z,7.50
2018-03-06T11:19:59.508Z,7.00
2018-03-06T11:22:27.791Z,7.00
2018-03-06T11:24:56.053Z,7.10
2018-03-06T11:27:24.310Z,7.40
2018-03-06T11:29:53.374Z,7.60
2018-03-06T11:32:21.633Z,7.50
2018-03-06T11:34:50.333Z,7.60
2018-03-06T11:37:18.612Z,7.90
2018-03-06T11:39:47.083Z,8.00
2018-03-06T11:42:15.358Z,8.00
2018-03-06T11:44:43.745Z,8.20
2018-03-06T11:47:12.020Z,8.20
2018-03-06T11:49:40.285Z,8.00
2018-03-06T11:52:08.541Z,7.60
2018-03-06T11:54:36.820Z,7.70
2018-03-06T11:57:05.100Z,7.90
2018-03-06T11:59:33.381Z,8.20
2018-03-06T12:02:01.684Z,8.20
2018-03-06T12:04:30.162Z,8.20
2018-03-06T12:06:58.439Z,8.50
2018-03-06T12:09:26.693Z,8.30
2018-03-06T12:11:54.980Z,8.30
2018-03-06T12:14:23.693Z,8.30
2018-03-06T12:16:53.463Z,8.70
2018-03-06T12:19:21.739Z,8.70
2018-03-06T12:21:50.043Z,8.90
2018-03-06T12:24:18.324Z,9.10
2018-03-06T12:26:46.602Z,9.00
2018-03-06T12:29:14.883Z,8.90
2018-03-06T12:31:43.155Z,8.80
2018-03-06T12:34:11.417Z,9.00
2018-03-06T12:36:39.704Z,9.00
2018-03-06T12:39:07.974Z,8.70
2018-03-06T12:41:36.265Z,8.60
2018-03-06T12:44:04.520Z,8.00
2018-03-06T12:46:32.787Z,8.00
2018-03-06T12:49:01.112Z,8.20
2018-03-06T12:51:29.373Z,8.60
2018-03-06T12:53:57.755Z,8.30
2018-03-06T12:56:26.004Z,8.30
2018-03-06T12:58:54.331Z,8.50
2018-03-06T13:01:23.606Z,8.40
2018-03-06T13:03:51.859Z,8.40
2018-03-06T13:06:20.161Z,7.90
2018-03-06T13:08:48.412Z,8.00
2018-03-06T13:11:16.725Z,7.90
2018-03-06T13:13:44.996Z,7.80
2018-03-06T13:16:13.278Z,7.90
2018-03-06T13:18:41.752Z,8.00
2018-03-06T13:21:10.029Z,8.40
2018-03-06T13:23:38.323Z,8.70
2018-03-06T13:26:06.584Z,8.80
2018-03-06T13:28:34.875Z,8.80
2018-03-06T13:31:03.229Z,8.80
2018-03-06T13:33:31.499Z,9.00
2018-03-06T13:35:59.772Z,9.00
2018-03-06T13:38:28.172Z,9.00
2018-03-06T13:40:56.477Z,8.90
2018-03-06T13:43:24.889Z,8.90
2018-03-06T13:45:53.161Z,8.90
2018-03-06T13:48:21.420Z,8.90
2018-03-06T13:50:50.455Z,8.20
2018-03-06T13:53:18.765Z,8.20
2018-03-06T13:55:47.136Z,7.90
2018-03-06T13:58:15.413Z,7.70
2018-03-06T14:00:43.797Z,7.40
2018-03-06T14:03:12.052Z,7.60
2018-03-06T14:05:40.311Z,7.40
2018-03-06T14:08:08.604Z,7.30
2018-03-06T14:10:36.903Z,7.30
2018-03-06T14:13:05.275Z,7.50
2018-03-06T14:15:33.660Z,7.60
2018-03-06T14:18:02.047Z,7.70
2018-03-06T14:20:30.425Z,7.60
2018-03-06T14:22:58.798Z,7.50
2018-03-06T14:25:27.151Z,7.60
2018-03-06T14:27:55.556Z,7.80
2018-03-06T14:30:23.828Z,7.60
2018-03-06T14:32:52.092Z,7.70
2018-03-06T14:35:20.376Z,7.60
2018-03-06T14:37:48.670Z,7.80
2018-03-06T14:40:16.934Z,7.70
2018-03-06T14:42:45.214Z,7.60
2018-03-06T14:45:13.498Z,7.40
2018-03-06T14:47:41.756Z,7.40
2018-03-06T14:50:10.044Z,7.40
2018-03-06T14:52:38.339Z,7.40
2018-03-06T14:55:06.637Z,7.20
2018-03-06T14:57:36.443Z,7.00
2018-03-06T15:00:05.617Z,6.80
2018-03-06T15:02:33.897Z,6.70
2018-03-06T15:05:02.160Z,6.70
2018-03-06T15:07:30.548Z,6.70
2018-03-06T15:09:58.807Z,6.60
2018-03-06T15:12:27.207Z,6.50
2018-03-06T15:14:55.466Z,6.50
2018-03-06T15:17:23.740Z,6.40
2018-03-06T15:19:52.004Z,6.40
2018-03-06T15:22:20.304Z,6.50
2018-03-06T15:24:48.596Z,6.20
2018-03-06T15:27:16.978Z,6.00
2018-03-06T15:29:45.225Z,6.00
2018-03-06T15:32:13.530Z,6.10
2018-03-06T15:34:41.805Z,6.10
2018-03-06T15:37:10.284Z,6.10
2018-03-06T15:39:38.562Z,6.10
2018-03-06T15:42:06.841Z,6.10
2018-03-06T15:44:35.136Z,6.00
2018-03-06T15:47:04.899Z,5.70
2018-03-06T15:49:33.225Z,5.70
2018-03-06T15:52:02.265Z,5.70
2018-03-06T15:54:30.571Z,5.70
2018-03-06T15:56:58.832Z,5.70
2018-03-06T15:59:27.135Z,5.60
2018-03-06T16:01:55.444Z,5.60
2018-03-06T16:04:24.511Z,5.40
2018-03-06T16:06:52.888Z,5.40
2018-03-06T16:09:21.162Z,5.40
2018-03-06T16:11:49.456Z,5.40
2018-03-06T16:14:18.484Z,5.20
2018-03-06T16:16:46.751Z,5.20
2018-03-06T16:19:15.843Z,5.10
2018-03-06T16:21:44.083Z,5.00
2018-03-06T16:24:12.376Z,5.00
2018-03-06T16:26:42.277Z,4.90
2018-03-06T16:29:10.585Z,4.90
2018-03-06T16:31:39.041Z,4.80
2018-03-06T16:34:07.320Z,4.70
2018-03-06T16:36:35.593Z,4.50
2018-03-06T16:39:03.903Z,4.40
2018-03-06T16:41:32.936Z,4.30
2018-03-06T16:44:01.231Z,4.30
2018-03-06T16:46:29.623Z,4.30
2018-03-06T16:48:57.993Z,4.30
2018-03-06T16:51:26.268Z,4.10
2018-03-06T16:53:54.556Z,4.00
2018-03-06T16:56:22.831Z,3.90
2018-03-06T16:58:51.199Z,3.80
2018-03-06T17:01:19.513Z,3.80
2018-03-06T17:03:48.705Z,3.50
2018-03-06T17:06:17.760Z,3.50
2018-03-06T17:08:46.037Z,3.40
2018-03-06T17:11:14.321Z,3.50
2018-03-06T17:13:42.607Z,3.50
2018-03-06T17:16:10.896Z,3.40
2018-03-06T17:18:39.274Z,3.30
2018-03-06T17:21:07.652Z,3.30
2018-03-06T17:23:35.936Z,3.20
2018-03-06T17:26:04.224Z,3.20
2018-03-06T17:28:33.275Z,3.10
2018-03-06T17:31:01.684Z,3.10
2018-03-06T17:33:29.972Z,3.10
2018-03-06T17:35:58.293Z,3.10
2018-03-06T17:38:26.584Z,3.00
2018-03-06T17:40:54.897Z,2.90
2018-03-06T17:43:23.286Z,2.90
2018-03-06T17:45:52.455Z,2.80
2018-03-06T17:48:20.744Z,2.70
2018-03-06T17:50:49.015Z,2.80
2018-03-06T17:53:17.320Z,2.80
2018-03-06T17:55:45.601Z,2.80
2018-03-06T17:58:14.685Z,2.60
2018-03-06T18:00:43.723Z,2.60
2018-03-06T18:03:12.019Z,2.60
2018-03-06T18:05:40.322Z,2.50
2018-03-06T18:08:08.624Z,2.50
2018-03-06T18:10:37.703Z,2.50
2018-03-06T18:13:05.978Z,2.50
2018-03-06T18:15:34.256Z,2.60
2018-03-06T18:18:02.542Z,2.50
2018-03-06T18:20:30.934Z,2.50
2018-03-06T18:22:59.289Z,2.50
2018-03-06T18:25:27.672Z,2.60
2018-03-06T18:27:55.944Z,2.60
2018-03-06T18:30:24.232Z,2.60
2018-03-06T18:32:52.508Z,2.50
2018-03-06T18:35:20.800Z,2.40
2018-03-06T18:37:49.077Z,2.40
2018-03-06T18:40:18.134Z,2.40
2018-03-06T18:42:46.425Z,2.40
2018-03-06T18:45:14.708Z,2.40
2018-03-06T18:47:42.989Z,2.40
2018-03-06T18:50:23.344Z,2.50
2018-03-06T18:52:51.597Z,2.50
2018-03-06T18:55:20.000Z,2.50
2018-03-06T18:57:48.277Z,2.50
2018-03-06T19:03:36.984Z,2.50
2018-03-06T19:06:17.999Z,2.50
2018-03-06T19:08:46.260Z,2.50
2018-03-06T19:11:14.552Z,2.40
2018-03-06T19:13:42.812Z,2.40
2018-03-06T19:16:11.101Z,2.50
2018-03-06T19:18:39.363Z,2.50
2018-03-06T19:21:07.658Z,2.60
2018-03-06T19:23:35.924Z,2.60
2018-03-06T19:26:04.361Z,2.60
2018-03-06T19:28:32.620Z,2.70
2018-03-06T19:31:01.028Z,2.70
2018-03-06T19:33:29.346Z,2.60
2018-03-06T19:35:57.664Z,2.50
2018-03-06T19:38:25.940Z,2.40
2018-03-06T19:40:54.203Z,2.50
2018-03-06T19:43:22.524Z,2.50
2018-03-06T19:45:50.997Z,2.50
2018-03-06T19:48:19.272Z,2.50
2018-03-06T19:50:47.608Z,2.40
2018-03-06T19:53:15.930Z,2.40
2018-03-06T19:55:44.215Z,2.40
2018-03-06T19:58:12.525Z,2.50
2018-03-06T20:00:40.788Z,2.50
2018-03-06T20:03:09.075Z,2.50
2018-03-06T20:05:37.344Z,2.40
2018-03-06T20:08:05.780Z,2.30
2018-03-06T20:10:34.068Z,2.30
2018-03-06T20:13:02.351Z,2.30
2018-03-06T20:15:30.630Z,2.30
2018-03-06T20:17:58.904Z,2.40
2018-03-06T20:20:27.187Z,2.40
2018-03-06T20:22:56.228Z,2.30
2018-03-06T20:25:30.343Z,2.30
2018-03-06T20:27:58.608Z,2.30
2018-03-06T20:30:32.526Z,2.30
2018-03-06T20:33:06.402Z,2.40
2018-03-06T20:35:35.479Z,2.50
2018-03-06T20:38:03.763Z,2.50
2018-03-06T20:40:33.831Z,2.50
2018-03-06T20:43:02.100Z,2.50
2018-03-06T20:45:36.160Z,2.60
2018-03-06T20:48:04.735Z,2.50
2018-03-06T20:50:33.962Z,2.20
2018-03-06T20:53:08.036Z,2.20
2018-03-06T20:55:36.425Z,2.20
2018-03-06T20:58:04.807Z,2.30
2018-03-06T21:00:33.216Z,2.30
2018-03-06T21:03:01.484Z,2.30
2018-03-06T21:05:30.544Z,2.50
2018-03-06T21:07:58.909Z,2.50
2018-03-06T21:10:27.224Z,2.50
2018-03-06T21:12:55.507Z,2.60
2018-03-06T21:15:23.854Z,2.50
2018-03-06T21:17:52.151Z,2.70
2018-03-06T21:20:20.421Z,3.10
2018-03-06T21:22:48.705Z,3.50
2018-03-06T21:25:16.985Z,3.80
2018-03-06T21:27:46.788Z,4.30
2018-03-06T21:30:15.185Z,4.30
2018-03-06T21:32:43.516Z,4.60
2018-03-06T21:35:11.772Z,4.30
2018-03-06T21:37:40.926Z,4.70
2018-03-06T21:40:09.184Z,4.70
2018-03-06T21:42:37.481Z,4.90
2018-03-06T21:45:05.860Z,5.00
2018-03-06T21:47:34.133Z,5.10
2018-03-06T21:50:02.454Z,4.90
2018-03-06T21:52:31.514Z,5.20
2018-03-06T21:55:00.676Z,5.20
2018-03-06T21:57:28.944Z,5.40
2018-03-06T21:59:57.363Z,5.40
2018-03-06T22:02:25.613Z,5.30
2018-03-06T22:04:53.916Z,5.00
2018-03-06T22:07:22.191Z,5.00
2018-03-06T22:09:50.574Z,4.60
2018-03-06T22:12:18.843Z,4.70
2018-03-06T22:14:47.232Z,4.70
2018-03-06T22:17:15.512Z,4.60
2018-03-06T22:19:43.895Z,4.60
2018-03-06T22:22:12.191Z,5.10
2018-03-06T22:24:41.216Z,5.40
2018-03-06T22:27:09.505Z,5.40
2018-03-06T22:29:37.767Z,5.40
2018-03-06T22:32:06.094Z,5.10
2018-03-06T22:34:34.474Z,5.00
2018-03-06T22:37:02.752Z,4.90
2018-03-06T22:39:31.145Z,4.90
2018-03-06T22:42:00.189Z,4.70
2018-03-06T22:44:28.465Z,4.70
2018-03-06T22:46:56.723Z,4.60
2018-03-06T22:49:25.072Z,4.50
2018-03-06T22:51:54.124Z,4.60
2018-03-06T22:54:22.403Z,4.60
2018-03-06T22:56:50.692Z,4.80
2018-03-06T22:59:18.984Z,5.10
2018-03-06T23:01:47.266Z,4.80
2018-03-06T23:04:15.541Z,4.60
2018-03-06T23:06:43.917Z,5.10
2018-03-06T23:09:12.193Z,4.90
2018-03-06T23:11:40.572Z,5.10
2018-03-06T23:14:08.847Z,5.00
2018-03-06T23:16:37.129Z,4.90
2018-03-06T23:19:05.436Z,4.80
2018-03-06T23:21:34.499Z,4.50
2018-03-06T23:24:02.824Z,4.50
2018-03-06T23:26:31.989Z,4.80
2018-03-06T23:29:00.356Z,4.70
2018-03-06T23:31:28.625Z,4.60
2018-03-06T23:33:56.910Z,4.70
2018-03-06T23:36:25.398Z,4.70
2018-03-06T23:38:53.738Z,4.80
2018-03-06T23:41:22.154Z,4.80
2018-03-06T23:43:50.533Z,4.60
2018-03-06T23:46:18.868Z,4.30
2018-03-06T23:48:47.137Z,4.50
2018-03-06T23:51:15.438Z,4.30
2018-03-06T23:53:43.848Z,4.00
2018-03-06T23:56:12.133Z,4.40
2018-03-06T23:58:40.466Z,4.20
